sensor_id;sensor_type;location;lat;lon;timestamp;P1;durP1;ratioP1;P2;durP2;ratioP2
37477;SDS011;23334;54.316;10.182;2022-08-19T19:27:05;19.80;;;13.80;;
37477;SDS011;23334;54.316;10.182;2022-08-19T19:29:33;26.80;;;15.07;;
37477;SDS011;23334;54.316;10.182;2022-08-19T19:32:01;26.40;;;15.67;;
37477;SDS011;23334;54.316;10.182;2022-08-19T19:34:31;25.53;;;15.73;;
37477;SDS011;23334;54.316;10.182;2022-08-19T19:36:57;19.70;;;13.30;;
37477;SDS011;23334;54.316;10.182;2022-08-19T19:39:22;32.10;;;14.80;;
37477;SDS011;23334;54.316;10.182;2022-08-19T19:41:48;26.90;;;13.90;;
37477;SDS011;23334;54.316;10.182;2022-08-19T19:44:14;29.50;;;15.00;;
37477;SDS011;23334;54.316;10.182;2022-08-19T19:46:42;19.60;;;13.90;;
37477;SDS011;23334;54.316;10.182;2022-08-19T19:49:08;22.37;;;14.03;;
37477;SDS011;23334;54.316;10.182;2022-08-19T19:51:34;21.63;;;14.13;;
37477;SDS011;23334;54.316;10.182;2022-08-19T19:54:03;21.90;;;14.17;;
37477;SDS011;23334;54.316;10.182;2022-08-19T19:56:30;27.07;;;16.03;;
37477;SDS011;23334;54.316;10.182;2022-08-19T19:58:55;25.17;;;16.90;;
37477;SDS011;23334;54.316;10.182;2022-08-19T20:01:21;28.20;;;15.80;;
37477;SDS011;23334;54.316;10.182;2022-08-19T20:03:51;24.97;;;14.93;;
37477;SDS011;23334;54.316;10.182;2022-08-19T20:06:17;23.63;;;15.67;;
37477;SDS011;23334;54.316;10.182;2022-08-19T20:08:45;25.33;;;16.63;;
37477;SDS011;23334;54.316;10.182;2022-08-19T20:11:30;26.30;;;17.10;;
37477;SDS011;23334;54.316;10.182;2022-08-19T20:14:00;27.70;;;16.70;;
37477;SDS011;23334;54.316;10.182;2022-08-19T20:16:31;27.43;;;17.60;;
37477;SDS011;23334;54.316;10.182;2022-08-19T20:18:57;28.73;;;18.13;;
37477;SDS011;23334;54.316;10.182;2022-08-19T20:21:25;27.00;;;17.17;;
37477;SDS011;23334;54.316;10.182;2022-08-19T20:23:56;30.13;;;19.20;;
37477;SDS011;23334;54.316;10.182;2022-08-19T20:26:23;27.43;;;17.93;;
37477;SDS011;23334;54.316;10.182;2022-08-19T20:28:49;28.00;;;20.47;;
37477;SDS011;23334;54.316;10.182;2022-08-19T20:31:16;30.17;;;19.23;;
37477;SDS011;23334;54.316;10.182;2022-08-19T20:33:43;31.83;;;18.90;;
37477;SDS011;23334;54.316;10.182;2022-08-19T20:36:09;27.63;;;17.03;;
37477;SDS011;23334;54.316;10.182;2022-08-19T20:38:34;22.60;;;16.00;;
37477;SDS011;23334;54.316;10.182;2022-08-19T20:41:03;22.87;;;16.23;;
37477;SDS011;23334;54.316;10.182;2022-08-19T20:43:29;21.73;;;16.10;;
37477;SDS011;23334;54.316;10.182;2022-08-19T20:45:55;22.43;;;16.23;;
37477;SDS011;23334;54.316;10.182;2022-08-19T20:48:21;26.77;;;16.00;;
37477;SDS011;23334;54.316;10.182;2022-08-19T20:50:46;21.70;;;14.83;;
37477;SDS011;23334;54.316;10.182;2022-08-19T20:53:15;23.70;;;15.27;;
37477;SDS011;23334;54.316;10.182;2022-08-19T20:55:45;25.60;;;16.00;;
37477;SDS011;23334;54.316;10.182;2022-08-19T20:58:13;23.70;;;14.73;;
37477;SDS011;23334;54.316;10.182;2022-08-19T21:00:40;26.60;;;15.60;;
37477;SDS011;23334;54.316;10.182;2022-08-19T21:03:10;14.90;;;12.83;;
37477;SDS011;23334;54.316;10.182;2022-08-19T21:05:46;17.63;;;12.87;;
37477;SDS011;23334;54.316;10.182;2022-08-19T21:08:13;21.10;;;13.40;;
37477;SDS011;23334;54.316;10.182;2022-08-19T21:10:42;17.97;;;12.67;;
37477;SDS011;23334;54.316;10.182;2022-08-19T21:13:08;17.70;;;12.80;;
37477;SDS011;23334;54.316;10.182;2022-08-19T21:15:34;18.27;;;12.80;;
37477;SDS011;23334;54.316;10.182;2022-08-19T21:18:03;17.20;;;13.13;;
37477;SDS011;23334;54.316;10.182;2022-08-19T21:20:29;15.47;;;12.77;;
37477;SDS011;23334;54.316;10.182;2022-08-19T21:22:54;15.97;;;11.80;;
37477;SDS011;23334;54.316;10.182;2022-08-19T21:25:20;20.53;;;12.73;;
37477;SDS011;23334;54.316;10.182;2022-08-19T21:27:45;15.50;;;12.50;;
37477;SDS011;23334;54.316;10.182;2022-08-19T21:30:11;17.80;;;11.83;;
37477;SDS011;23334;54.316;10.182;2022-08-19T21:32:37;17.57;;;11.10;;
37477;SDS011;23334;54.316;10.182;2022-08-19T21:35:04;15.60;;;12.30;;
37477;SDS011;23334;54.316;10.182;2022-08-19T21:37:30;22.00;;;11.63;;
37477;SDS011;23334;54.316;10.182;2022-08-19T21:39:58;19.73;;;12.23;;
37477;SDS011;23334;54.316;10.182;2022-08-19T21:42:24;17.00;;;11.20;;
37477;SDS011;23334;54.316;10.182;2022-08-19T21:44:50;17.83;;;10.60;;
37477;SDS011;23334;54.316;10.182;2022-08-19T21:47:15;16.67;;;10.57;;
37477;SDS011;23334;54.316;10.182;2022-08-19T21:49:41;14.17;;;10.67;;
37477;SDS011;23334;54.316;10.182;2022-08-19T21:52:07;16.53;;;12.40;;
37477;SDS011;23334;54.316;10.182;2022-08-19T21:54:34;17.67;;;12.07;;
37477;SDS011;23334;54.316;10.182;2022-08-19T21:56:59;16.70;;;12.50;;
37477;SDS011;23334;54.316;10.182;2022-08-19T21:59:25;15.80;;;11.07;;
37477;SDS011;23334;54.316;10.182;2022-08-19T22:01:50;13.90;;;10.70;;
37477;SDS011;23334;54.316;10.182;2022-08-19T22:04:16;16.17;;;10.70;;
37477;SDS011;23334;54.316;10.182;2022-08-19T22:06:43;17.63;;;11.20;;
37477;SDS011;23334;54.316;10.182;2022-08-19T22:09:08;13.80;;;10.37;;
37477;SDS011;23334;54.316;10.182;2022-08-19T22:11:34;13.13;;;10.77;;
37477;SDS011;23334;54.316;10.182;2022-08-19T22:13:59;16.70;;;10.10;;
37477;SDS011;23334;54.316;10.182;2022-08-19T22:16:25;15.23;;;10.73;;
37477;SDS011;23334;54.316;10.182;2022-08-19T22:18:50;14.70;;;10.20;;
37477;SDS011;23334;54.316;10.182;2022-08-19T22:21:16;15.40;;;10.90;;
37477;SDS011;23334;54.316;10.182;2022-08-19T22:23:43;11.97;;;9.63;;
37477;SDS011;23334;54.316;10.182;2022-08-19T22:26:10;14.67;;;10.77;;
37477;SDS011;23334;54.316;10.182;2022-08-19T22:28:37;13.33;;;10.30;;
37477;SDS011;23334;54.316;10.182;2022-08-19T22:31:02;17.27;;;11.17;;
37477;SDS011;23334;54.316;10.182;2022-08-19T22:33:28;14.17;;;10.80;;
37477;SDS011;23334;54.316;10.182;2022-08-19T22:35:54;23.63;;;10.67;;
37477;SDS011;23334;54.316;10.182;2022-08-19T22:38:22;14.80;;;10.37;;
37477;SDS011;23334;54.316;10.182;2022-08-19T22:40:49;14.50;;;11.50;;
37477;SDS011;23334;54.316;10.182;2022-08-19T22:43:19;16.23;;;10.20;;
37477;SDS011;23334;54.316;10.182;2022-08-19T22:45:47;13.80;;;10.37;;
37477;SDS011;23334;54.316;10.182;2022-08-19T22:48:14;17.57;;;9.50;;
37477;SDS011;23334;54.316;10.182;2022-08-19T22:50:44;14.57;;;9.63;;
37477;SDS011;23334;54.316;10.182;2022-08-19T22:53:32;14.33;;;9.57;;
37477;SDS011;23334;54.316;10.182;2022-08-19T22:56:02;10.53;;;8.40;;
37477;SDS011;23334;54.316;10.182;2022-08-19T22:58:28;14.87;;;8.50;;
37477;SDS011;23334;54.316;10.182;2022-08-19T23:00:54;12.60;;;8.90;;
37477;SDS011;23334;54.316;10.182;2022-08-19T23:03:20;10.80;;;7.70;;
37477;SDS011;23334;54.316;10.182;2022-08-19T23:05:46;12.90;;;7.97;;
37477;SDS011;23334;54.316;10.182;2022-08-19T23:08:11;11.50;;;8.17;;
37477;SDS011;23334;54.316;10.182;2022-08-19T23:10:37;11.73;;;6.87;;
37477;SDS011;23334;54.316;10.182;2022-08-19T23:13:03;9.20;;;6.07;;
37477;SDS011;23334;54.316;10.182;2022-08-19T23:15:29;9.17;;;6.60;;
37477;SDS011;23334;54.316;10.182;2022-08-19T23:17:56;9.43;;;6.50;;
37477;SDS011;23334;54.316;10.182;2022-08-19T23:20:25;7.33;;;5.90;;
37477;SDS011;23334;54.316;10.182;2022-08-19T23:22:54;8.40;;;5.60;;
37477;SDS011;23334;54.316;10.182;2022-08-19T23:25:21;7.43;;;6.70;;
37477;SDS011;23334;54.316;10.182;2022-08-19T23:27:49;8.00;;;6.80;;
37477;SDS011;23334;54.316;10.182;2022-08-19T23:30:36;8.60;;;6.60;;
37477;SDS011;23334;54.316;10.182;2022-08-19T23:33:06;6.50;;;5.90;;
37477;SDS011;23334;54.316;10.182;2022-08-19T23:36:05;6.90;;;6.20;;
37477;SDS011;23334;54.316;10.182;2022-08-19T23:38:39;6.67;;;5.93;;
37477;SDS011;23334;54.316;10.182;2022-08-19T23:41:07;6.87;;;5.70;;
37477;SDS011;23334;54.316;10.182;2022-08-19T23:43:35;5.93;;;5.33;;
37477;SDS011;23334;54.316;10.182;2022-08-19T23:46:02;6.17;;;5.47;;
37477;SDS011;23334;54.316;10.182;2022-08-19T23:48:30;7.80;;;5.27;;
37477;SDS011;23334;54.316;10.182;2022-08-19T23:50:56;5.80;;;5.10;;
37477;SDS011;23334;54.316;10.182;2022-08-19T23:53:24;6.70;;;5.27;;
37477;SDS011;23334;54.316;10.182;2022-08-19T23:55:50;7.57;;;6.30;;
37477;SDS011;23334;54.316;10.182;2022-08-19T23:58:16;5.67;;;5.07;;
